Time;durP1;ratioP1;P1;durP2;ratioP2;P2;SDS_P1;SDS_P2;PMS_P1;PMS_P2;Temp;Humidity;BMP_temperature;BMP_pressure;BME280_temperature;BME280_humidity;BME280_pressure;Samples;Min_cycle;Max_cycle;Signal;HPM_P1;HPM_P2
2022/06/27 00:01:49;;;;;;;17.13;8.55;;;;;;;16.61;94.19;101451.09;5029685;28;20025;-67
2022/06/27 00:04:15;;;;;;;15.88;7.90;;;;;;;16.61;94.22;101453.78;5029904;28;20021;-67
2022/06/27 00:06:40;;;;;;;15.65;8.75;;;;;;;16.63;94.49;101448.97;5030044;28;20167;-67
2022/06/27 00:09:05;;;;;;;16.13;8.20;;;;;;;16.63;94.98;101451.69;5029982;28;20029;-67
2022/06/27 00:11:31;;;;;;;16.00;8.35;;;;;;;16.62;95.24;101452.75;5030006;28;20224;-67
2022/06/27 00:13:56;;;;;;;16.02;8.35;;;;;;;16.61;95.52;101451.09;5029897;28;20543;-67
2022/06/27 00:16:22;;;;;;;15.93;9.05;;;;;;;16.57;95.40;101436.41;5029753;28;20053;-67
2022/06/27 00:18:47;;;;;;;16.90;8.70;;;;;;;16.58;95.90;101443.47;5029826;28;20037;-67
2022/06/27 00:21:13;;;;;;;17.40;8.63;;;;;;;16.59;96.22;101444.28;5029833;28;20037;-67
2022/06/27 00:23:38;;;;;;;15.77;9.15;;;;;;;16.58;96.43;101448.84;5029640;28;20030;-67
2022/06/27 00:26:03;;;;;;;15.80;9.15;;;;;;;16.57;96.73;101457.97;5029616;28;20543;-67
2022/06/27 00:28:29;;;;;;;15.70;8.90;;;;;;;16.59;96.75;101463.13;5029225;28;20100;-67
2022/06/27 00:30:54;;;;;;;16.98;8.93;;;;;;;16.60;97.16;101454.81;5028713;28;20033;-67
2022/06/27 00:33:20;;;;;;;16.48;8.90;;;;;;;16.59;96.76;101457.75;5029345;28;20481;-67
2022/06/27 00:35:45;;;;;;;16.00;9.55;;;;;;;16.57;96.40;101471.44;5011615;28;20227;-67
2022/06/27 00:38:11;;;;;;;19.80;10.50;;;;;;;16.53;96.23;101478.31;5029506;28;20029;-67
2022/06/27 00:40:36;;;;;;;15.82;8.75;;;;;;;16.55;96.42;101488.84;5011987;28;20109;-67
2022/06/27 00:43:01;;;;;;;14.65;8.65;;;;;;;16.53;96.91;101483.69;5028211;28;20087;-67
2022/06/27 00:45:27;;;;;;;15.88;8.90;;;;;;;16.54;97.29;101488.03;5028772;28;20026;-67
2022/06/27 00:47:52;;;;;;;18.23;8.98;;;;;;;16.53;96.98;101489.09;5029081;28;20087;-67
2022/06/27 00:50:18;;;;;;;18.35;8.82;;;;;;;16.51;96.60;101488.47;5029191;28;20128;-67
2022/06/27 00:52:44;;;;;;;16.30;8.93;;;;;;;16.54;97.02;101492.59;5029142;28;20065;-67
2022/06/27 00:55:10;;;;;;;16.75;9.75;;;;;;;16.54;97.12;101493.41;5029237;28;20033;-67
2022/06/27 00:57:36;;;;;;;16.95;8.25;;;;;;;16.55;97.25;101491.53;5029171;28;20108;-67
2022/06/27 01:00:04;;;;;;;18.50;10.20;;;;;;;16.56;97.46;101483.25;5029330;28;20029;-67
2022/06/27 01:02:29;;;;;;;15.30;9.45;;;;;;;16.55;97.08;101484.28;5029136;28;20034;-67
2022/06/27 01:04:55;;;;;;;20.00;11.07;;;;;;;16.55;97.32;101484.28;5028864;28;21061;-67
2022/06/27 01:07:20;;;;;;;19.15;9.20;;;;;;;16.55;97.25;101478.06;5029180;28;20029;-67
2022/06/27 01:09:45;;;;;;;17.60;9.23;;;;;;;16.54;97.05;101474.56;5029082;28;20053;-67
2022/06/27 01:12:12;;;;;;;17.83;9.60;;;;;;;16.53;96.27;101482.84;5029186;28;20039;-68
2022/06/27 01:14:37;;;;;;;20.85;10.20;;;;;;;16.54;96.32;101482.66;5028980;28;20032;-68
2022/06/27 01:17:03;;;;;;;16.85;8.98;;;;;;;16.55;96.59;101488.84;5029044;28;20718;-68
2022/06/27 01:19:29;;;;;;;15.68;9.00;;;;;;;16.53;96.62;101486.41;5029138;28;20037;-68
2022/06/27 01:21:56;;;;;;;15.05;8.43;;;;;;;16.52;96.37;101479.34;5029213;28;20040;-68
2022/06/27 01:24:23;;;;;;;17.50;9.73;;;;;;;16.50;96.13;101476.03;5029021;28;20488;-68
2022/06/27 01:26:50;;;;;;;14.93;10.05;;;;;;;16.51;96.13;101480.41;5029070;28;20048;-68
2022/06/27 01:29:16;;;;;;;17.45;9.68;;;;;;;16.52;96.63;101473.13;5028109;28;20579;-68
2022/06/27 01:31:42;;;;;;;17.17;8.90;;;;;;;16.50;96.42;101473.34;5028505;28;20030;-68
2022/06/27 01:34:08;;;;;;;18.13;8.60;;;;;;;16.50;96.51;101473.34;5028250;28;20040;-68
2022/06/27 01:36:43;;;;;;;17.45;8.98;;;;;;;16.47;96.99;101464.91;5028589;28;20657;-68
2022/06/27 01:39:15;;;;;;;15.95;9.10;;;;;;;16.50;97.30;101467.97;5028045;28;20469;-68
2022/06/27 01:41:46;;;;;;;21.15;10.38;;;;;;;16.51;97.50;101463.44;5028539;28;20091;-68
2022/06/27 01:44:12;;;;;;;17.63;9.57;;;;;;;16.51;96.76;101458.84;5028813;28;20034;-68
2022/06/27 01:46:51;;;;;;;15.95;9.68;;;;;;;16.43;96.67;101435.72;5028581;28;20045;-68
2022/06/27 01:49:18;;;;;;;16.10;9.25;;;;;;;16.48;96.77;101443.16;5031244;28;20025;-68
2022/06/27 01:51:46;;;;;;;16.95;9.43;;;;;;;16.47;96.99;101446.06;5032566;28;20053;-68
2022/06/27 01:54:13;;;;;;;16.80;9.10;;;;;;;16.43;97.77;101438.41;5032501;28;20025;-68
2022/06/27 01:56:40;;;;;;;17.77;10.50;;;;;;;16.43;99.14;101430.34;5032494;28;20029;-68
2022/06/27 01:59:05;;;;;;;15.85;9.40;;;;;;;16.44;99.97;101431.97;5032293;28;20033;-68
2022/06/27 02:01:31;;;;;;;17.33;9.68;;;;;;;16.43;100.00;101427.66;5032351;28;20037;-68
2022/06/27 02:03:59;;;;;;;16.95;9.20;;;;;;;16.44;99.43;101418.50;5032622;28;20065;-68
2022/06/27 02:06:25;;;;;;;18.27;10.35;;;;;;;16.45;99.25;101430.09;5031700;28;20032;-68
2022/06/27 02:08:52;;;;;;;16.30;10.00;;;;;;;16.43;99.00;101429.53;5032182;28;20063;-68
2022/06/27 02:11:18;;;;;;;17.55;10.02;;;;;;;16.43;99.61;101443.00;5032249;28;20528;-68
2022/06/27 02:13:44;;;;;;;17.00;8.85;;;;;;;16.41;99.53;101437.00;5032200;28;20040;-68
2022/06/27 02:16:15;;;;;;;18.50;9.75;;;;;;;16.39;100.00;101439.06;5031900;28;20043;-68
2022/06/27 02:18:42;;;;;;;17.77;10.75;;;;;;;16.39;99.31;101425.63;5032029;28;20506;-68
2022/06/27 02:21:10;;;;;;;17.70;10.57;;;;;;;16.39;99.59;101423.75;5031904;28;20527;-68
2022/06/27 02:23:36;;;;;;;16.88;8.68;;;;;;;16.39;98.58;101418.34;5031854;28;20031;-68
2022/06/27 02:26:02;;;;;;;17.45;9.18;;;;;;;16.38;97.37;101419.41;5031875;28;20029;-68
2022/06/27 02:28:28;;;;;;;17.92;9.82;;;;;;;16.37;97.44;101415.09;5031885;28;20131;-68
2022/06/27 02:30:54;;;;;;;17.70;9.77;;;;;;;16.37;97.03;101407.00;5031142;28;20116;-68
2022/06/27 02:33:20;;;;;;;18.95;10.32;;;;;;;16.35;97.48;101405.59;5031763;28;20584;-68
2022/06/27 02:35:46;;;;;;;17.55;9.77;;;;;;;16.32;98.29;101400.63;5031377;28;20103;-68
2022/06/27 02:38:14;;;;;;;16.02;10.13;;;;;;;16.34;98.47;101403.91;5030947;28;20044;-68
2022/06/27 02:40:42;;;;;;;18.60;9.75;;;;;;;16.31;98.24;101407.06;5031480;28;20021;-68
2022/06/27 02:43:09;;;;;;;16.25;8.85;;;;;;;16.31;98.27;101401.66;5031512;28;20041;-68
2022/06/27 02:45:37;;;;;;;15.80;9.00;;;;;;;16.33;99.00;101404.97;5031642;28;20029;-68
2022/06/27 02:48:03;;;;;;;18.90;9.88;;;;;;;16.28;98.27;101394.84;5031554;28;20063;-68
2022/06/27 02:50:32;;;;;;;19.88;10.48;;;;;;;16.29;98.65;101393.81;5030805;28;20160;-68
2022/06/27 02:53:04;;;;;;;15.80;9.60;;;;;;;16.30;99.23;101389.28;5031307;28;20140;-68
2022/06/27 02:55:41;;;;;;;17.23;9.60;;;;;;;16.26;99.82;101383.47;5031445;28;20173;-68
2022/06/27 02:58:15;;;;;;;17.35;9.40;;;;;;;16.24;100.00;101380.19;5031270;28;20045;-68
2022/06/27 03:00:42;;;;;;;17.92;9.40;;;;;;;16.20;100.00;101373.63;5030960;28;20496;-68
2022/06/27 03:03:11;;;;;;;15.77;9.45;;;;;;;16.18;100.00;101371.13;5031291;28;20037;-68
2022/06/27 03:06:03;;;;;;;17.08;10.80;;;;;;;16.17;100.00;101374.88;5030959;28;20025;-68
2022/06/27 03:08:49;;;;;;;17.05;10.20;;;;;;;16.12;100.00;101374.72;5031089;28;20021;-68
2022/06/27 03:11:20;;;;;;;19.08;9.02;;;;;;;16.09;100.00;101368.97;5030630;28;20042;-68
2022/06/27 03:13:46;;;;;;;17.63;9.32;;;;;;;16.06;99.68;101369.38;5031092;28;20033;-68
2022/06/27 03:16:13;;;;;;;19.52;10.23;;;;;;;16.05;99.68;101367.75;5030912;28;20564;-68
2022/06/27 03:18:39;;;;;;;17.58;10.35;;;;;;;16.03;99.93;101361.75;5030934;28;20174;-68
2022/06/27 03:21:04;;;;;;;17.23;9.25;;;;;;;16.06;100.00;101364.00;5031084;28;20104;-68
2022/06/27 03:23:30;;;;;;;18.70;8.82;;;;;;;16.01;99.83;101359.28;5030890;28;20587;-68
2022/06/27 03:25:55;;;;;;;18.08;8.90;;;;;;;15.97;100.00;101360.75;5030963;28;20048;-68
2022/06/27 03:28:22;;;;;;;16.60;9.18;;;;;;;15.95;100.00;101358.28;5030685;28;20435;-68
2022/06/27 03:30:47;;;;;;;16.00;8.45;;;;;;;15.93;100.00;101359.56;5030749;28;20480;-68
2022/06/27 03:33:13;;;;;;;16.13;9.05;;;;;;;15.86;100.00;101351.53;5012405;28;20065;-68
2022/06/27 03:35:39;;;;;;;16.42;8.73;;;;;;;15.86;100.00;101356.09;5030481;28;20064;-68
2022/06/27 03:38:05;;;;;;;16.25;9.93;;;;;;;15.83;100.00;101357.38;5030441;28;20079;-68
2022/06/27 03:40:30;;;;;;;18.10;10.10;;;;;;;15.82;100.00;101363.78;5030445;28;20132;-68
2022/06/27 03:42:55;;;;;;;15.98;9.45;;;;;;;15.77;100.00;101353.69;5030475;28;20432;-68
2022/06/27 03:45:21;;;;;;;15.05;9.23;;;;;;;15.79;100.00;101356.16;5030341;28;20029;-68
2022/06/27 03:47:46;;;;;;;16.85;8.90;;;;;;;15.76;100.00;101353.91;5030426;28;20124;-68
2022/06/27 03:50:13;;;;;;;19.17;10.65;;;;;;;15.74;100.00;101355.97;5030215;28;20959;-68
2022/06/27 03:52:40;;;;;;;15.50;9.20;;;;;;;15.70;100.00;101363.66;5029780;28;20057;-68
2022/06/27 03:55:07;;;;;;;17.58;7.88;;;;;;;15.68;100.00;101368.41;5030082;28;20515;-68
2022/06/27 03:57:33;;;;;;;15.18;8.95;;;;;;;15.64;100.00;101369.03;5030091;28;20140;-68
2022/06/27 03:59:58;;;;;;;19.45;10.88;;;;;;;15.58;100.00;101365.38;5030130;28;20120;-68
2022/06/27 04:02:27;;;;;;;19.67;9.90;;;;;;;15.57;100.00;101367.25;5028872;28;20124;-68
2022/06/27 04:04:52;;;;;;;19.35;10.00;;;;;;;15.54;100.00;101362.31;5029538;28;20041;-68
2022/06/27 04:07:17;;;;;;;17.13;10.00;;;;;;;15.51;100.00;101367.28;5029664;28;20106;-68
2022/06/27 04:09:43;;;;;;;20.85;9.88;;;;;;;15.49;100.00;101380.13;5029849;28;20112;-68
2022/06/27 04:12:09;;;;;;;22.27;10.10;;;;;;;15.50;100.00;101379.06;5029105;28;20477;-68
2022/06/27 04:14:34;;;;;;;18.08;10.55;;;;;;;15.51;100.00;101383.41;5029957;28;20504;-68
2022/06/27 04:17:00;;;;;;;20.13;11.18;;;;;;;15.53;100.00;101384.84;5029885;28;20033;-68
2022/06/27 04:19:26;;;;;;;20.67;9.93;;;;;;;15.49;100.00;101380.94;5029817;28;20498;-68
2022/06/27 04:21:51;;;;;;;17.55;9.07;;;;;;;15.50;100.00;101390.66;5029712;28;20041;-68
2022/06/27 04:24:16;;;;;;;19.70;11.02;;;;;;;15.46;100.00;101373.31;5029527;28;20056;-68
2022/06/27 04:26:42;;;;;;;18.95;10.93;;;;;;;15.51;100.00;101378.03;5029645;28;20051;-68
2022/06/27 04:29:08;;;;;;;19.20;11.95;;;;;;;15.54;100.00;101372.22;5029670;28;20045;-68
2022/06/27 04:31:33;;;;;;;21.38;11.23;;;;;;;15.62;100.00;101368.47;5029736;28;20088;-68
2022/06/27 04:33:59;;;;;;;19.45;12.02;;;;;;;15.71;100.00;101359.94;5029457;28;20033;-68
2022/06/27 04:36:25;;;;;;;21.48;11.77;;;;;;;15.77;100.00;101353.69;5028974;28;20056;-68
2022/06/27 04:38:51;;;;;;;20.48;11.90;;;;;;;15.88;100.00;101348.66;5029404;28;20036;-68
2022/06/27 04:41:16;;;;;;;19.02;11.43;;;;;;;15.98;100.00;101344.41;5029467;28;20037;-68
2022/06/27 04:43:42;;;;;;;18.77;10.63;;;;;;;16.06;100.00;101337.94;5029637;28;20037;-68
2022/06/27 04:46:07;;;;;;;19.50;11.00;;;;;;;16.09;100.00;101333.97;5029320;28;20036;-68
2022/06/27 04:48:35;;;;;;;18.05;11.40;;;;;;;16.11;100.00;101330.03;5029289;28;20048;-68
2022/06/27 04:51:01;;;;;;;18.35;11.65;;;;;;;16.09;100.00;101331.28;5029361;28;20113;-68
2022/06/27 04:53:27;;;;;;;19.15;10.57;;;;;;;16.11;100.00;101324.66;5028583;28;20077;-68
2022/06/27 04:55:54;;;;;;;19.27;11.65;;;;;;;16.12;100.00;101322.78;5029258;28;20101;-68
2022/06/27 04:58:19;;;;;;;16.73;10.88;;;;;;;16.15;100.00;101333.91;5029355;28;20059;-68
2022/06/27 05:00:46;;;;;;;20.92;10.38;;;;;;;16.23;100.00;101346.25;5029322;28;20465;-68
2022/06/27 05:03:12;;;;;;;19.60;11.40;;;;;;;16.26;100.00;101339.59;5029295;28;20026;-68
2022/06/27 05:05:37;;;;;;;19.00;11.35;;;;;;;16.30;100.00;101330.88;5029328;28;20056;-68
2022/06/27 05:08:02;;;;;;;21.58;11.38;;;;;;;16.32;100.00;101338.69;5029099;28;20029;-68
2022/06/27 05:10:28;;;;;;;20.02;11.25;;;;;;;16.32;100.00;101336.84;5028907;28;20033;-68
2022/06/27 05:12:53;;;;;;;19.38;11.15;;;;;;;16.33;100.00;101329.59;5029073;28;20710;-68
2022/06/27 05:15:19;;;;;;;19.95;11.82;;;;;;;16.31;100.00;101315.53;5028951;28;20033;-68
2022/06/27 05:17:44;;;;;;;20.98;11.60;;;;;;;16.29;100.00;101318.44;5028946;28;20492;-68
2022/06/27 05:20:10;;;;;;;20.45;11.25;;;;;;;16.26;100.00;101310.00;5028685;28;20073;-68
2022/06/27 05:22:35;;;;;;;21.25;12.98;;;;;;;16.24;100.00;101306.69;5030852;28;20029;-68
2022/06/27 05:25:01;;;;;;;19.17;11.52;;;;;;;16.23;100.00;101313.13;5032759;28;20033;-68
2022/06/27 05:27:26;;;;;;;18.48;10.60;;;;;;;16.26;100.00;101329.66;5032661;28;20037;-68
2022/06/27 05:29:52;;;;;;;18.40;11.27;;;;;;;16.27;100.00;101327.78;5033047;28;20029;-68
2022/06/27 05:32:17;;;;;;;19.58;10.75;;;;;;;16.26;100.00;101334.22;5033119;28;20047;-68
2022/06/27 05:34:42;;;;;;;17.77;11.63;;;;;;;16.26;100.00;101320.75;5032933;28;20125;-68
2022/06/27 05:37:08;;;;;;;19.90;12.07;;;;;;;16.26;100.00;101315.38;5032252;28;20056;-68
2022/06/27 05:39:34;;;;;;;19.67;11.07;;;;;;;16.27;100.00;101325.09;5032391;28;20120;-68
2022/06/27 05:42:00;;;;;;;17.27;10.43;;;;;;;16.22;100.00;101341.94;5032544;28;20038;-68
2022/06/27 05:44:27;;;;;;;23.17;11.90;;;;;;;16.30;100.00;101397.34;5032737;28;20029;-68
2022/06/27 05:46:55;;;;;;;19.75;12.23;;;;;;;16.32;100.00;101408.69;5032704;28;20111;-68
2022/06/27 05:49:21;;;;;;;20.73;12.05;;;;;;;16.37;100.00;101416.94;5032718;28;20030;-68
2022/06/27 05:51:46;;;;;;;19.27;12.18;;;;;;;16.40;100.00;101411.94;5032376;28;20061;-68
2022/06/27 05:54:12;;;;;;;23.70;13.85;;;;;;;16.43;100.00;101418.75;5032364;28;20032;-68
2022/06/27 05:56:39;;;;;;;21.05;11.82;;;;;;;16.45;100.00;101422.03;5031998;28;20033;-68
2022/06/27 05:59:06;;;;;;;22.55;13.45;;;;;;;16.48;100.00;101437.75;5032543;28;20037;-65
2022/06/27 06:01:31;;;;;;;21.48;14.23;;;;;;;16.46;100.00;101442.53;5032412;28;20056;-65
2022/06/27 06:03:57;;;;;;;20.13;12.40;;;;;;;16.48;100.00;101443.16;5032491;28;20104;-65
2022/06/27 06:06:24;;;;;;;19.05;12.38;;;;;;;16.47;100.00;101443.34;5032275;28;20108;-65
2022/06/27 06:08:50;;;;;;;22.10;13.38;;;;;;;16.46;100.00;101441.72;5032344;28;20025;-64
2022/06/27 06:11:15;;;;;;;18.83;12.15;;;;;;;16.46;100.00;101444.41;5031841;28;20044;-65
2022/06/27 06:13:43;;;;;;;22.90;11.95;;;;;;;16.46;99.67;101458.69;5032136;28;20036;-65
2022/06/27 06:16:10;;;;;;;23.27;12.95;;;;;;;16.44;99.84;101453.53;5032020;28;20037;-65
2022/06/27 06:18:36;;;;;;;22.08;13.00;;;;;;;16.50;100.00;101457.19;5032060;28;20113;-65
2022/06/27 06:21:01;;;;;;;20.92;13.05;;;;;;;16.48;100.00;101445.00;5032041;28;20457;-65
2022/06/27 06:23:27;;;;;;;19.08;12.40;;;;;;;16.51;100.00;101447.28;5032145;28;20041;-65
2022/06/27 06:25:53;;;;;;;22.77;13.40;;;;;;;16.54;100.00;101449.50;5032028;28;20044;-65
2022/06/27 06:28:18;;;;;;;24.73;13.13;;;;;;;16.53;100.00;101437.06;5031347;28;20099;-65
2022/06/27 06:30:44;;;;;;;19.20;11.60;;;;;;;16.54;100.00;101446.81;5031048;28;20469;-65
2022/06/27 06:33:09;;;;;;;24.40;13.13;;;;;;;16.58;100.00;101450.69;5031325;28;20041;-65
2022/06/27 06:35:35;;;;;;;21.92;12.38;;;;;;;16.56;100.00;101452.81;5031205;28;20025;-65
2022/06/27 06:38:02;;;;;;;22.05;12.48;;;;;;;16.65;100.00;101454.97;5031692;28;20068;-65
2022/06/27 06:40:28;;;;;;;23.55;13.93;;;;;;;16.64;100.00;101456.03;5031097;28;20079;-65
2022/06/27 06:42:55;;;;;;;20.92;12.30;;;;;;;16.68;100.00;101452.91;5031710;28;20040;-65
2022/06/27 06:45:21;;;;;;;21.85;13.95;;;;;;;16.72;100.00;101438.78;5031653;28;20384;-65
2022/06/27 06:47:50;;;;;;;23.42;14.55;;;;;;;16.76;100.00;101431.06;5031341;28;20025;-65
2022/06/27 06:50:18;;;;;;;22.30;13.65;;;;;;;16.72;100.00;101419.91;5031299;28;20029;-66
2022/06/27 06:52:51;;;;;;;23.08;12.95;;;;;;;16.81;100.00;101415.88;5031324;28;20400;-66
2022/06/27 06:55:21;;;;;;;19.20;11.65;;;;;;;16.88;100.00;101409.63;5031377;28;20492;-65
2022/06/27 06:57:47;;;;;;;20.85;12.98;;;;;;;16.84;100.00;101406.53;5030248;28;20473;-66
2022/06/27 07:00:13;;;;;;;20.08;12.70;;;;;;;16.95;100.00;101403.13;5031372;28;20119;-66
2022/06/27 07:02:38;;;;;;;22.80;14.30;;;;;;;16.98;100.00;101394.56;5031257;28;20469;-66
2022/06/27 07:05:08;;;;;;;24.33;13.68;;;;;;;16.98;100.00;101381.09;5031177;28;20037;-66
2022/06/27 07:07:34;;;;;;;29.70;17.70;;;;;;;17.03;100.00;101383.13;5031091;28;20064;-66
2022/06/27 07:10:00;;;;;;;25.65;16.67;;;;;;;17.01;99.86;101386.03;5031245;28;20126;-66
2022/06/27 07:12:26;;;;;;;26.10;15.57;;;;;;;17.06;99.96;101398.84;5030618;28;21006;-66
2022/06/27 07:14:54;;;;;;;23.80;16.75;;;;;;;17.11;100.00;101400.81;5030512;28;20045;-65
2022/06/27 07:17:24;;;;;;;24.27;14.90;;;;;;;17.17;100.00;101397.25;5030909;28;20989;-65
2022/06/27 07:19:53;;;;;;;25.05;15.13;;;;;;;17.21;100.00;101383.09;5031098;28;20544;-66
2022/06/27 07:22:19;;;;;;;23.70;14.48;;;;;;;17.23;99.40;101355.88;5031004;28;20044;-66
2022/06/27 07:24:47;;;;;;;26.73;14.32;;;;;;;17.23;99.45;101372.06;5030833;28;20436;-66
2022/06/27 07:27:17;;;;;;;22.45;15.13;;;;;;;17.29;100.00;101417.81;5029761;28;20044;-66
2022/06/27 07:29:43;;;;;;;22.40;14.32;;;;;;;17.37;99.28;101432.88;5030715;28;20032;-66
2022/06/27 07:32:08;;;;;;;24.30;15.30;;;;;;;17.42;98.72;101429.47;5030691;28;20034;-66
2022/06/27 07:34:37;;;;;;;23.98;15.20;;;;;;;17.48;98.02;101432.09;5030660;28;20030;-66
2022/06/27 07:37:03;;;;;;;25.88;17.40;;;;;;;17.58;97.39;101444.19;5030595;28;20443;-67
2022/06/27 07:39:29;;;;;;;27.00;21.58;;;;;;;17.68;97.72;101442.59;5030552;28;20032;-69
2022/06/27 07:41:54;;;;;;;27.40;19.92;;;;;;;17.79;96.87;101437.44;5029912;28;20030;-69
2022/06/27 07:44:21;;;;;;;26.85;20.13;;;;;;;17.91;96.67;101411.34;5029058;28;20030;-69
2022/06/27 07:46:48;;;;;;;23.80;16.88;;;;;;;18.06;96.40;101403.66;5030299;28;20497;-69
2022/06/27 07:49:13;;;;;;;26.00;16.98;;;;;;;18.14;95.15;101424.91;5030394;28;20030;-70
2022/06/27 07:51:39;;;;;;;22.70;14.60;;;;;;;18.27;96.09;101431.94;5030172;28;20040;-69
2022/06/27 07:54:05;;;;;;;21.42;14.63;;;;;;;18.34;94.69;101445.34;5030386;28;20447;-69
2022/06/27 07:56:31;;;;;;;24.05;13.63;;;;;;;18.45;94.10;101443.72;5030405;28;20037;-69
2022/06/27 07:58:57;;;;;;;22.42;13.88;;;;;;;18.51;92.68;101449.00;5029636;28;20132;-70
2022/06/27 08:01:23;;;;;;;22.00;14.55;;;;;;;18.57;91.91;101464.25;5029465;28;20037;-69
2022/06/27 08:03:49;;;;;;;24.60;14.13;;;;;;;18.56;92.48;101464.50;5030183;28;20033;-70
2022/06/27 08:06:21;;;;;;;21.35;12.60;;;;;;;18.54;93.31;101461.19;5029551;28;20116;-70
2022/06/27 08:08:52;;;;;;;22.05;11.15;;;;;;;18.50;90.57;101479.78;5030081;28;20017;-70
2022/06/27 08:11:21;;;;;;;22.45;11.32;;;;;;;18.46;90.74;101469.66;5030047;28;20034;-69
2022/06/27 08:13:48;;;;;;;19.27;11.50;;;;;;;18.50;92.93;101476.25;5029463;28;20028;-69
2022/06/27 08:16:15;;;;;;;18.92;11.40;;;;;;;18.47;90.02;101484.81;5030011;28;20033;-70
2022/06/27 08:18:43;;;;;;;21.73;11.27;;;;;;;18.58;89.81;101498.34;5029728;28;20030;-69
2022/06/27 08:21:09;;;;;;;21.55;12.52;;;;;;;18.73;91.92;101507.84;5029731;28;20401;-69
2022/06/27 08:23:36;;;;;;;19.10;12.35;;;;;;;18.74;90.53;101479.78;5029842;28;20167;-69
2022/06/27 08:26:04;;;;;;;20.75;11.32;;;;;;;18.78;85.79;101476.38;5029193;28;20120;-69
2022/06/27 08:28:30;;;;;;;19.40;11.20;;;;;;;18.78;89.48;101479.06;5029126;28;20044;-69
2022/06/27 08:30:57;;;;;;;17.05;10.57;;;;;;;18.68;88.55;101470.72;5029755;28;20480;-69
2022/06/27 08:33:23;;;;;;;17.27;10.00;;;;;;;18.77;86.71;101490.13;5029739;28;20041;-69
2022/06/27 08:35:49;;;;;;;18.33;10.45;;;;;;;18.71;87.23;101496.47;5029497;28;20025;-69
2022/06/27 08:38:16;;;;;;;18.42;8.30;;;;;;;18.67;87.97;101496.09;5029562;28;20039;-69
2022/06/27 08:40:43;;;;;;;16.40;8.70;;;;;;;18.66;88.20;101507.16;5029452;28;20486;-69
2022/06/27 08:43:11;;;;;;;18.92;9.50;;;;;;;18.65;89.46;101521.69;5027919;28;20033;-69
2022/06/27 08:45:36;;;;;;;20.45;10.68;;;;;;;18.63;86.51;101532.75;5028798;28;20029;-69
2022/06/27 08:48:07;;;;;;;18.20;9.05;;;;;;;18.59;87.77;101520.75;5029516;28;20040;-70
2022/06/27 08:50:34;;;;;;;19.23;11.18;;;;;;;18.64;87.32;101507.38;5029414;28;20522;-69
2022/06/27 08:53:01;;;;;;;18.55;10.68;;;;;;;18.65;86.95;101502.78;5029264;28;20099;-70
2022/06/27 08:55:26;;;;;;;25.15;11.50;;;;;;;18.65;85.25;101513.59;5029215;28;20025;-69
2022/06/27 08:57:52;;;;;;;19.67;11.35;;;;;;;18.64;85.58;101509.25;5028675;28;20037;-70
2022/06/27 09:00:18;;;;;;;24.13;11.60;;;;;;;18.61;85.34;101503.25;5029141;28;20104;-69
2022/06/27 09:02:43;;;;;;;18.42;11.18;;;;;;;18.69;87.99;101517.50;5028726;28;20419;-70
2022/06/27 09:05:18;;;;;;;17.42;10.65;;;;;;;18.71;88.33;101523.50;5029204;28;20047;-69
2022/06/27 09:07:53;;;;;;;18.23;11.40;;;;;;;18.75;88.83;101516.56;5029031;28;20044;-69
2022/06/27 09:10:31;;;;;;;23.75;13.00;;;;;;;18.80;88.02;101527.50;5029441;28;20814;-69
2022/06/27 09:13:10;;;;;;;18.95;12.27;;;;;;;18.93;88.01;101538.06;5029115;28;20030;-69
2022/06/27 09:15:59;;;;;;;20.00;12.02;;;;;;;19.02;86.19;101525.84;5029197;28;20029;-69
2022/06/27 09:18:25;;;;;;;22.60;11.80;;;;;;;19.05;87.08;101529.97;5029001;28;20033;-73
2022/06/27 09:21:05;;;;;;;20.75;11.75;;;;;;;19.10;86.21;101518.44;5024377;28;20024;-73
2022/06/27 09:23:40;;;;;;;17.88;11.48;;;;;;;19.13;83.68;101517.97;5025081;28;20033;-72
2022/06/27 09:26:22;;;;;;;20.75;10.35;;;;;;;19.20;83.57;101507.84;5025077;28;20077;-72
2022/06/27 09:28:51;;;;;;;;;;;;;;;19.34;85.94;101508.41;5025546;28;20144;-73
2022/06/27 09:31:24;;;;;;;18.48;10.73;;;;;;;19.41;84.35;101511.78;5023732;28;19917;-72
2022/06/27 09:33:59;;;;;;;21.98;11.80;;;;;;;19.45;83.18;101516.47;5024641;28;20025;-72
2022/06/27 09:36:27;;;;;;;19.77;10.95;;;;;;;19.46;79.45;101530.81;5024739;28;20108;-74
2022/06/27 09:38:52;;;;;;;20.92;11.15;;;;;;;19.42;80.73;101535.91;5024779;28;20025;-69
2022/06/27 09:41:19;;;;;;;19.95;11.13;;;;;;;19.40;79.54;101539.91;5024567;28;20025;-71
2022/06/27 09:43:48;;;;;;;19.05;11.45;;;;;;;19.37;79.88;101540.38;5024924;28;20037;-71
2022/06/27 09:46:15;;;;;;;19.08;12.40;;;;;;;19.38;82.57;101536.63;5023569;28;20053;-71
2022/06/27 09:48:45;;;;;;;20.45;10.60;;;;;;;19.31;79.72;101520.53;5024416;28;20021;-71
2022/06/27 09:51:14;;;;;;;19.92;12.20;;;;;;;19.43;79.80;101531.31;5024289;28;20029;-71
2022/06/27 09:53:44;;;;;;;16.15;10.35;;;;;;;19.68;79.24;101515.63;5024397;28;20140;-71
2022/06/27 09:56:10;;;;;;;22.83;11.65;;;;;;;19.93;77.72;101511.75;5024396;28;20096;-71
2022/06/27 09:58:38;;;;;;;22.10;14.88;;;;;;;20.12;77.05;101509.63;5024483;28;20040;-71
2022/06/27 10:01:07;;;;;;;19.45;13.23;;;;;;;20.23;77.70;101510.66;5024305;28;20023;-71
2022/06/27 10:03:35;;;;;;;21.33;12.48;;;;;;;20.23;75.21;101513.38;5024023;28;20397;-71
2022/06/27 10:06:00;;;;;;;19.20;11.85;;;;;;;20.18;74.71;101516.00;5024187;28;20057;-72
2022/06/27 10:08:26;;;;;;;19.60;12.20;;;;;;;20.17;75.48;101522.44;5024013;28;20496;-72
2022/06/27 10:11:01;;;;;;;17.85;10.15;;;;;;;20.11;76.47;101518.84;5027080;28;20030;-70
2022/06/27 10:13:31;;;;;;;15.82;10.18;;;;;;;20.04;74.10;101512.75;5028298;28;20101;-70
2022/06/27 10:15:58;;;;;;;19.58;10.20;;;;;;;20.04;72.20;101508.19;5027600;28;20120;-71
2022/06/27 10:18:24;;;;;;;15.18;9.52;;;;;;;20.09;71.63;101493.88;5028137;28;20087;-70
2022/06/27 10:20:51;;;;;;;16.98;10.27;;;;;;;20.23;72.26;101500.63;5027784;28;20473;-72
2022/06/27 10:23:26;;;;;;;17.23;10.88;;;;;;;20.36;72.63;101489.47;5027671;28;20488;-71
2022/06/27 10:25:52;;;;;;;17.73;11.77;;;;;;;20.50;71.76;101495.38;5027679;28;20083;-71
2022/06/27 10:28:18;;;;;;;18.20;9.73;;;;;;;20.64;71.01;101500.47;5026501;28;20538;-71
2022/06/27 10:30:54;;;;;;;14.63;8.90;;;;;;;20.61;68.57;101498.28;5028066;28;20509;-71
2022/06/27 10:33:25;;;;;;;12.35;7.47;;;;;;;20.58;69.30;101492.28;5027867;28;20034;-72
2022/06/27 10:36:04;;;;;;;16.80;7.95;;;;;;;20.61;70.48;101493.66;5027355;28;20025;-72
2022/06/27 10:38:45;;;;;;;16.90;9.27;;;;;;;20.56;71.18;101488.16;5027980;28;20025;-71
2022/06/27 10:41:31;;;;;;;16.40;9.35;;;;;;;20.47;71.19;101486.94;5027995;28;20032;-71
2022/06/27 10:43:59;;;;;;;16.92;9.27;;;;;;;20.36;68.08;101486.75;5028294;28;20029;-72
2022/06/27 10:46:24;;;;;;;12.07;6.43;;;;;;;20.32;64.52;101493.72;5030221;28;20072;-71
2022/06/27 10:48:52;;;;;;;9.37;4.67;;;;;;;20.36;66.21;101497.59;5029298;28;20092;-71
2022/06/27 10:51:33;;;;;;;12.65;5.63;;;;;;;20.48;66.56;101500.22;5030607;28;20295;-72
2022/06/27 10:53:59;;;;;;;;;;;;;;;20.63;69.58;101494.25;5031612;28;20489;-71
2022/06/27 10:56:35;;;;;;;13.90;7.37;;;;;;;20.68;66.50;101504.34;5031220;28;19915;-71
2022/06/27 10:59:03;;;;;;;17.38;8.20;;;;;;;20.71;64.98;101495.72;5031360;28;20039;-72
2022/06/27 11:01:29;;;;;;;12.00;7.05;;;;;;;20.65;65.69;101494.00;5031271;28;20037;-72
2022/06/27 11:03:55;;;;;;;13.05;6.80;;;;;;;20.59;66.18;101495.81;5029993;28;20040;-71
2022/06/27 11:06:21;;;;;;;10.15;5.32;;;;;;;20.56;64.05;101507.13;5030397;28;20037;-71
2022/06/27 11:08:48;;;;;;;13.40;5.20;;;;;;;20.48;64.44;101499.41;5031080;28;20029;-71
2022/06/27 11:11:19;;;;;;;13.18;6.00;;;;;;;20.42;65.60;101512.06;5031059;28;20044;-71